Ocoee 1 Observed Data For Previous 48 Hours

Caption
Day and Hour Reservoir Elevation (behind dam)* Tailwater Elevation (below dam)* Average Hourly Discharge*
7/14/2018 2 AM EDT 828.35 713.47 15
7/14/2018 3 AM EDT 828.34 714.21 601
7/14/2018 4 AM EDT 828.35 713.11 0
7/14/2018 5 AM EDT 828.34 713.09 0
7/14/2018 6 AM EDT 828.34 713.45 13
7/14/2018 7 AM EDT 828.32 714.21 599
7/14/2018 8 AM EDT 828.30 713.11 0
7/14/2018 9 AM EDT 828.32 713.09 0
7/14/2018 10 AM EDT 828.35 713.41 11
7/14/2018 11 AM EDT 828.37 715.07 674
7/14/2018 12 PM EDT 828.38 716.00 1,342
7/14/2018 1 PM EDT 828.38 716.12 1,358
7/14/2018 2 PM EDT 828.36 717.10 2,026
7/14/2018 3 PM EDT 828.35 717.83 2,706
7/14/2018 4 PM EDT 828.28 717.85 2,707
7/14/2018 5 PM EDT 828.25 717.86 2,707
7/14/2018 6 PM EDT 828.17 717.87 2,716
7/14/2018 7 PM EDT 828.16 717.85 2,714
7/14/2018 8 PM EDT 828.10 717.85 2,720
7/14/2018 9 PM EDT 828.06 717.00 2,025
7/14/2018 10 PM EDT 828.06 716.02 1,352
7/14/2018 11 PM EDT 828.08 714.11 592
7/15/2018 12 AM EDT 828.10 713.12 0
7/15/2018 1 AM EDT 828.11 713.10 0
7/15/2018 2 AM EDT 828.11 713.46 14
7/15/2018 3 AM EDT 828.09 714.10 595
7/15/2018 4 AM EDT 828.09 713.11 0
7/15/2018 5 AM EDT 828.09 713.10 0
7/15/2018 6 AM EDT 828.09 713.48 14
7/15/2018 7 AM EDT 828.08 714.21 600
7/15/2018 8 AM EDT 828.01 713.11 0
7/15/2018 9 AM EDT 828.09 713.09 0
7/15/2018 10 AM EDT 828.10 713.26 3
7/15/2018 11 AM EDT 828.14 715.07 673
7/15/2018 12 PM EDT 828.04 716.00 1,344
7/15/2018 1 PM EDT 828.14 716.19 1,358
7/15/2018 2 PM EDT 828.11 716.97 2,014
7/15/2018 3 PM EDT 828.05 716.99 2,014
7/15/2018 4 PM EDT 828.08 716.97 2,000
7/15/2018 5 PM EDT 828.06 716.95 1,995
7/15/2018 6 PM EDT 828.04 716.99 2,018
7/15/2018 7 PM EDT 827.93 716.98 2,014
7/15/2018 8 PM EDT 827.98 716.98 2,015
7/15/2018 9 PM EDT 828.00 716.98 2,011
7/15/2018 10 PM EDT 827.95 716.99 2,016
7/15/2018 11 PM EDT 827.95 716.02 1,352
7/16/2018 12 AM EDT 827.98 714.11 597
7/16/2018 1 AM EDT 828.02 713.12 0
7/16/2018 2 AM EDT 828.06 713.09 0

Elevations are in feet above sea level. Discharges are in cubic feet per second and are reported at the end of the hour.